createdAt,value
2023-05-17T00:00:52.140Z,9.20
2023-05-17T00:03:19.850Z,9.20
2023-05-17T00:05:47.404Z,9.10
2023-05-17T00:08:15.014Z,9.10
2023-05-17T00:10:43.319Z,9.10
2023-05-17T00:13:11.095Z,9.00
2023-05-17T00:15:38.660Z,8.90
2023-05-17T00:18:06.310Z,9.00
2023-05-17T00:20:34.657Z,9.00
2023-05-17T00:23:02.973Z,9.00
2023-05-17T00:25:30.771Z,8.90
2023-05-17T00:27:58.494Z,8.90
2023-05-17T00:30:26.051Z,8.90
2023-05-17T00:32:53.796Z,8.90
2023-05-17T00:35:21.668Z,8.80
2023-05-17T00:37:49.311Z,8.80
2023-05-17T00:40:16.872Z,8.70
2023-05-17T00:42:45.133Z,8.60
2023-05-17T00:45:13.062Z,8.60
2023-05-17T00:47:41.494Z,8.60
2023-05-17T00:50:10.223Z,8.60
2023-05-17T00:52:38.976Z,8.60
2023-05-17T00:55:07.189Z,8.60
2023-05-17T00:57:35.622Z,8.60
2023-05-17T01:00:04.816Z,8.60
2023-05-17T01:02:32.473Z,8.50
2023-05-17T01:05:00.908Z,8.50
2023-05-17T01:07:29.096Z,8.50
2023-05-17T01:09:57.287Z,8.50
2023-05-17T01:12:49.049Z,8.50
2023-05-17T01:15:33.290Z,8.40
2023-05-17T01:18:23.945Z,8.30
2023-05-17T01:20:56.123Z,8.30
2023-05-17T01:23:54.382Z,8.20
2023-05-17T01:26:39.427Z,8.10
2023-05-17T01:29:09.700Z,8.10
2023-05-17T01:31:38.977Z,8.10
2023-05-17T01:34:10.633Z,8.10
2023-05-17T01:36:38.492Z,8.00
2023-05-17T01:39:06.255Z,8.00
2023-05-17T01:41:42.311Z,8.00
2023-05-17T01:44:35.619Z,8.00
2023-05-17T01:47:15.357Z,8.00
2023-05-17T01:49:52.743Z,8.00
2023-05-17T01:52:48.167Z,8.00
2023-05-17T01:55:32.026Z,8.00
2023-05-17T01:58:01.696Z,8.00
2023-05-17T02:00:30.106Z,7.90
2023-05-17T02:02:58.573Z,7.80
2023-05-17T02:05:26.345Z,7.80
2023-05-17T02:07:53.986Z,7.70
2023-05-17T02:10:22.337Z,7.60
2023-05-17T02:12:49.876Z,7.70
2023-05-17T02:15:17.512Z,7.70
2023-05-17T02:17:45.888Z,7.70
2023-05-17T02:20:15.505Z,7.70
2023-05-17T02:22:43.287Z,7.60
2023-05-17T02:25:11.202Z,7.60
2023-05-17T02:27:41.334Z,7.60
2023-05-17T02:30:09.630Z,7.50
2023-05-17T02:32:39.007Z,7.50
2023-05-17T02:35:08.517Z,7.50
2023-05-17T02:37:36.601Z,7.50
2023-05-17T02:40:09.819Z,7.50
2023-05-17T02:42:38.127Z,7.50
2023-05-17T02:45:06.571Z,7.50
2023-05-17T02:47:34.202Z,7.40
2023-05-17T02:50:01.818Z,7.30
2023-05-17T02:52:30.322Z,7.30
2023-05-17T02:54:58.110Z,7.30
2023-05-17T02:57:25.811Z,7.30
2023-05-17T02:59:54.148Z,7.30
2023-05-17T03:02:21.826Z,7.30
2023-05-17T03:04:49.536Z,7.20
2023-05-17T03:07:18.032Z,7.10
2023-05-17T03:10:11.111Z,7.00
2023-05-17T03:12:43.333Z,7.00
2023-05-17T03:15:11.447Z,7.00
2023-05-17T03:17:39.114Z,7.00
2023-05-17T03:20:08.792Z,7.00
2023-05-17T03:22:37.052Z,6.90
2023-05-17T03:25:05.834Z,6.80
2023-05-17T03:27:34.682Z,6.80
2023-05-17T03:30:02.623Z,6.80
2023-05-17T03:32:32.328Z,6.70
2023-05-17T03:35:00.461Z,6.70
2023-05-17T03:37:29.038Z,6.60
2023-05-17T03:39:56.722Z,6.50
2023-05-17T03:42:24.993Z,6.50
2023-05-17T03:44:52.641Z,6.50
2023-05-17T03:47:23.884Z,6.50
2023-05-17T03:49:51.702Z,6.50
2023-05-17T03:52:19.315Z,6.50
2023-05-17T03:54:48.240Z,6.50
2023-05-17T03:57:17.250Z,6.50
2023-05-17T03:59:45.872Z,6.60
2023-05-17T04:02:16.577Z,6.50
2023-05-17T04:04:51.442Z,6.50
2023-05-17T04:07:19.908Z,6.50
2023-05-17T04:09:47.699Z,6.60
2023-05-17T04:12:16.387Z,6.60
2023-05-17T04:14:44.347Z,6.60
2023-05-17T04:17:12.611Z,6.60
2023-05-17T04:19:41.853Z,6.70
2023-05-17T04:22:09.527Z,6.70
2023-05-17T04:24:37.615Z,6.60
2023-05-17T04:27:07.054Z,6.70
2023-05-17T04:29:35.623Z,6.70
2023-05-17T04:32:03.446Z,6.70
2023-05-17T04:34:32.137Z,6.70
2023-05-17T04:37:01.288Z,6.70
2023-05-17T04:39:30.948Z,6.70
2023-05-17T04:41:59.488Z,6.80
2023-05-17T04:44:27.542Z,6.90
2023-05-17T04:46:56.453Z,6.90
2023-05-17T04:49:25.109Z,6.90
2023-05-17T04:51:53.004Z,7.00
2023-05-17T04:54:20.967Z,7.00
2023-05-17T04:56:48.963Z,7.00
2023-05-17T04:59:24.399Z,7.00
2023-05-17T05:01:52.061Z,7.00
2023-05-17T05:04:19.942Z,7.00
2023-05-17T05:06:49.656Z,7.10
2023-05-17T05:09:17.846Z,7.00
2023-05-17T05:11:46.285Z,7.10
2023-05-17T05:14:14.165Z,7.10
2023-05-17T05:16:42.400Z,7.20
2023-05-17T05:19:10.520Z,7.20
2023-05-17T05:21:38.847Z,7.30
2023-05-17T05:24:09.066Z,7.20
2023-05-17T05:26:37.136Z,7.20
2023-05-17T05:29:06.298Z,7.20
2023-05-17T05:31:34.441Z,7.30
2023-05-17T05:34:03.696Z,7.30
2023-05-17T05:36:31.516Z,7.30
2023-05-17T05:39:00.913Z,7.30
2023-05-17T05:41:31.268Z,7.30
2023-05-17T05:43:58.890Z,7.30
2023-05-17T05:46:26.949Z,7.30
2023-05-17T05:48:55.360Z,7.40
2023-05-17T05:51:23.123Z,7.40
2023-05-17T05:53:52.065Z,7.50
2023-05-17T05:56:20.814Z,7.60
2023-05-17T05:58:48.624Z,7.70
2023-05-17T06:01:16.774Z,7.70
2023-05-17T06:03:44.579Z,7.70
2023-05-17T06:06:12.777Z,7.70
2023-05-17T06:08:40.490Z,7.70
2023-05-17T06:11:08.068Z,7.80
2023-05-17T06:13:35.616Z,7.80
2023-05-17T06:16:03.555Z,7.90
2023-05-17T06:18:31.205Z,7.90
2023-05-17T06:20:59.004Z,8.00
2023-05-17T06:23:26.797Z,8.10
2023-05-17T06:25:54.332Z,8.20
2023-05-17T06:28:21.852Z,8.20
2023-05-17T06:30:49.426Z,8.30
2023-05-17T06:33:17.071Z,8.40
2023-05-17T06:35:55.597Z,8.50
2023-05-17T06:38:24.281Z,8.60
2023-05-17T06:40:54.475Z,8.70
2023-05-17T06:43:22.437Z,8.80
2023-05-17T06:45:50.948Z,8.70
2023-05-17T06:48:18.636Z,8.60
2023-05-17T06:50:46.383Z,8.70
2023-05-17T06:53:13.954Z,8.70
2023-05-17T06:55:41.745Z,8.80
2023-05-17T06:58:09.601Z,8.80
2023-05-17T07:00:37.228Z,8.90
2023-05-17T07:03:05.047Z,9.00
2023-05-17T07:05:33.184Z,9.00
2023-05-17T07:08:01.804Z,9.00
2023-05-17T07:10:29.544Z,9.20
2023-05-17T07:12:57.113Z,9.30
2023-05-17T07:15:25.312Z,9.40
2023-05-17T07:17:53.151Z,9.50
2023-05-17T07:20:21.351Z,9.60
2023-05-17T07:22:50.270Z,9.70
2023-05-17T07:25:18.933Z,9.70
2023-05-17T07:27:47.077Z,9.60
2023-05-17T07:30:15.546Z,9.60
2023-05-17T07:32:43.158Z,9.60
2023-05-17T07:35:10.875Z,9.70
2023-05-17T07:37:38.411Z,9.70
2023-05-17T07:40:07.190Z,9.80
2023-05-17T07:42:34.794Z,9.80
2023-05-17T07:45:02.812Z,10.00
2023-05-17T07:47:31.010Z,10.00
2023-05-17T07:49:58.596Z,10.10
2023-05-17T07:52:26.129Z,10.10
2023-05-17T07:54:53.666Z,10.10
2023-05-17T07:57:21.217Z,10.10
2023-05-17T07:59:48.755Z,10.00
2023-05-17T08:02:18.835Z,9.90
2023-05-17T08:04:46.781Z,9.80
2023-05-17T08:07:16.675Z,9.70
2023-05-17T08:09:45.516Z,9.70
2023-05-17T08:12:13.241Z,9.80
2023-05-17T08:14:40.814Z,9.90
2023-05-17T08:17:08.369Z,10.00
2023-05-17T08:19:36.283Z,10.20
2023-05-17T08:22:04.191Z,10.20
2023-05-17T08:24:31.715Z,10.20
2023-05-17T08:26:59.452Z,10.20
2023-05-17T08:29:27.173Z,10.20
2023-05-17T08:31:55.135Z,10.20
2023-05-17T08:34:23.063Z,10.20
2023-05-17T08:36:50.685Z,10.50
2023-05-17T08:39:18.223Z,10.70
2023-05-17T08:41:48.395Z,10.90
2023-05-17T08:44:17.155Z,10.90
2023-05-17T08:46:52.297Z,11.00
2023-05-17T08:49:25.750Z,11.00
2023-05-17T08:51:59.539Z,11.00
2023-05-17T08:54:27.841Z,10.90
2023-05-17T08:57:00.395Z,10.80
2023-05-17T08:59:33.977Z,10.80
2023-05-17T09:02:02.706Z,10.90
2023-05-17T09:04:31.937Z,10.80
2023-05-17T09:07:00.134Z,10.80
2023-05-17T09:09:27.950Z,10.80
2023-05-17T09:11:55.602Z,10.90
2023-05-17T09:14:23.490Z,10.90
2023-05-17T09:16:58.228Z,10.90
2023-05-17T09:19:26.228Z,11.10
2023-05-17T09:21:59.943Z,11.20
2023-05-17T09:24:31.609Z,11.30
2023-05-17T09:27:04.226Z,11.30
2023-05-17T09:29:33.302Z,11.50
2023-05-17T09:32:14.837Z,11.70
2023-05-17T09:34:45.710Z,11.80
2023-05-17T09:37:16.804Z,11.90
2023-05-17T09:39:46.739Z,12.00
2023-05-17T09:42:16.675Z,12.20
2023-05-17T09:44:57.674Z,12.40
2023-05-17T09:47:30.319Z,12.50
2023-05-17T09:50:03.152Z,12.50
2023-05-17T09:52:31.927Z,12.40
2023-05-17T09:55:00.859Z,12.50
2023-05-17T09:57:38.979Z,12.70
2023-05-17T10:00:12.382Z,12.90
2023-05-17T10:02:47.905Z,13.10
2023-05-17T10:05:17.082Z,13.30
2023-05-17T10:07:46.205Z,13.50
2023-05-17T10:10:14.285Z,13.60
2023-05-17T10:12:42.545Z,13.70
2023-05-17T10:15:12.684Z,13.80
2023-05-17T10:17:43.907Z,14.00
2023-05-17T10:20:15.627Z,14.10
2023-05-17T10:22:43.753Z,14.10
2023-05-17T10:25:12.612Z,14.10
2023-05-17T10:27:41.892Z,13.90
2023-05-17T10:30:11.528Z,13.50
2023-05-17T10:32:39.862Z,13.60
2023-05-17T10:35:12.000Z,13.60
2023-05-17T10:37:41.706Z,13.50
2023-05-17T10:40:14.079Z,13.50
2023-05-17T10:42:52.246Z,13.50
2023-05-17T10:45:25.660Z,13.20
2023-05-17T10:47:54.012Z,12.80
2023-05-17T10:50:24.018Z,12.90
2023-05-17T10:52:53.442Z,12.90
2023-05-17T10:55:24.982Z,12.90
2023-05-17T10:58:21.253Z,12.90
2023-05-17T11:00:55.772Z,13.10
2023-05-17T11:03:30.601Z,13.10
2023-05-17T11:06:24.373Z,13.20
2023-05-17T11:09:16.693Z,13.30
2023-05-17T11:12:03.965Z,13.30
2023-05-17T11:14:48.339Z,13.40
2023-05-17T11:17:27.654Z,13.40
2023-05-17T11:19:55.326Z,13.30
2023-05-17T11:22:27.597Z,13.40
2023-05-17T11:24:58.142Z,13.50
2023-05-17T11:27:29.586Z,13.50
2023-05-17T11:29:58.709Z,13.80
2023-05-17T11:32:29.580Z,14.00
2023-05-17T11:35:01.194Z,14.10
2023-05-17T11:37:31.118Z,14.20
2023-05-17T11:40:07.930Z,14.20
2023-05-17T11:42:38.384Z,14.20
2023-05-17T11:45:07.166Z,14.20
2023-05-17T11:47:39.522Z,14.20
2023-05-17T11:50:07.844Z,14.20
2023-05-17T11:52:35.466Z,14.00
2023-05-17T11:55:03.912Z,13.90
2023-05-17T11:57:32.430Z,14.00
2023-05-17T12:00:07.912Z,14.00
2023-05-17T12:02:41.070Z,14.10
2023-05-17T12:05:09.453Z,14.40
2023-05-17T12:07:37.499Z,14.60
2023-05-17T12:10:06.499Z,14.60
2023-05-17T12:12:34.089Z,14.40
2023-05-17T12:15:01.973Z,14.50
2023-05-17T12:17:37.096Z,14.60
2023-05-17T12:20:11.512Z,14.60
2023-05-17T12:22:56.066Z,14.40
2023-05-17T12:25:29.482Z,14.30
2023-05-17T12:28:18.925Z,14.40
2023-05-17T12:30:46.940Z,14.50
2023-05-17T12:33:14.900Z,14.60
2023-05-17T12:35:42.813Z,14.70
2023-05-17T12:38:11.472Z,14.80
2023-05-17T12:40:43.249Z,14.90
2023-05-17T12:43:11.203Z,14.90
2023-05-17T12:45:42.061Z,14.90
2023-05-17T12:48:09.640Z,14.90
2023-05-17T12:50:37.247Z,14.90
2023-05-17T12:53:09.154Z,14.90
2023-05-17T12:55:38.135Z,15.00
2023-05-17T12:58:05.804Z,15.20
2023-05-17T13:00:33.393Z,14.80
2023-05-17T13:03:01.261Z,14.70
2023-05-17T13:05:28.976Z,14.70
2023-05-17T13:07:56.482Z,14.40
2023-05-17T13:10:28.824Z,14.40
2023-05-17T13:12:58.773Z,14.20
2023-05-17T13:15:32.314Z,13.90
2023-05-17T13:18:12.125Z,13.90
2023-05-17T13:20:40.071Z,13.90
2023-05-17T13:23:07.679Z,13.90
2023-05-17T13:25:36.723Z,13.90
2023-05-17T13:28:04.408Z,13.90
2023-05-17T13:30:32.081Z,13.90
2023-05-17T13:32:59.923Z,13.80
2023-05-17T13:35:27.528Z,13.80
2023-05-17T13:37:55.194Z,13.90
2023-05-17T13:40:22.993Z,14.00
2023-05-17T13:42:50.573Z,14.00
2023-05-17T13:45:18.102Z,14.20
2023-05-17T13:47:45.831Z,14.30
2023-05-17T13:50:17.092Z,14.10
2023-05-17T13:52:44.685Z,14.00
2023-05-17T13:55:12.289Z,13.90
2023-05-17T13:57:39.879Z,13.80
2023-05-17T14:00:08.390Z,13.80
2023-05-17T14:02:37.090Z,13.90
2023-05-17T14:05:05.391Z,14.10
2023-05-17T14:07:33.055Z,14.00
2023-05-17T14:10:00.963Z,13.60
2023-05-17T14:12:28.939Z,13.40
2023-05-17T14:14:56.635Z,13.40
2023-05-17T14:17:24.281Z,13.50
2023-05-17T14:19:52.539Z,13.40
2023-05-17T14:22:20.089Z,13.40
2023-05-17T14:24:47.660Z,13.30
2023-05-17T14:27:15.190Z,13.40
2023-05-17T14:29:42.748Z,13.40
2023-05-17T14:32:12.794Z,13.50
2023-05-17T14:34:40.554Z,13.60
2023-05-17T14:37:08.575Z,13.60
2023-05-17T14:39:36.149Z,13.80
2023-05-17T14:42:03.991Z,13.90
2023-05-17T14:44:31.594Z,14.00
2023-05-17T14:46:59.207Z,14.10
2023-05-17T14:49:26.721Z,14.10
2023-05-17T14:51:54.237Z,14.00
2023-05-17T14:54:22.045Z,14.30
2023-05-17T14:56:49.630Z,14.60
2023-05-17T14:59:17.202Z,15.10
2023-05-17T15:01:44.744Z,15.50
2023-05-17T15:04:13.123Z,15.60
2023-05-17T15:06:41.591Z,16.10
2023-05-17T15:09:14.091Z,16.60
2023-05-17T15:11:41.981Z,17.00
2023-05-17T15:14:09.866Z,17.00
2023-05-17T15:16:38.265Z,16.80
2023-05-17T15:19:06.488Z,16.70
2023-05-17T15:21:34.120Z,16.60
2023-05-17T15:24:01.713Z,16.40
2023-05-17T15:26:29.251Z,16.30
2023-05-17T15:28:57.489Z,16.00
2023-05-17T15:31:25.021Z,15.90
2023-05-17T15:33:52.732Z,15.80
2023-05-17T15:36:20.439Z,16.10
2023-05-17T15:38:48.003Z,16.50
2023-05-17T15:41:17.632Z,16.90
2023-05-17T15:43:45.516Z,17.20
2023-05-17T15:46:13.151Z,17.30
2023-05-17T15:48:41.007Z,17.40
2023-05-17T15:51:08.723Z,17.50
2023-05-17T15:53:36.241Z,17.70
2023-05-17T15:56:04.168Z,17.80
2023-05-17T15:58:33.312Z,17.80
2023-05-17T16:01:05.568Z,17.90
2023-05-17T16:03:33.873Z,17.80
2023-05-17T16:06:01.653Z,17.60
2023-05-17T16:08:29.227Z,17.40
2023-05-17T16:10:56.769Z,17.00
2023-05-17T16:13:24.785Z,16.80
2023-05-17T16:15:52.490Z,16.60
2023-05-17T16:18:20.904Z,16.50
2023-05-17T16:21:04.036Z,16.40
2023-05-17T16:23:31.686Z,16.40
2023-05-17T16:25:59.421Z,16.30
2023-05-17T16:28:27.029Z,16.30
2023-05-17T16:30:54.685Z,16.30
2023-05-17T16:33:22.400Z,16.30
2023-05-17T16:35:50.043Z,16.20
2023-05-17T16:38:17.621Z,16.00
2023-05-17T16:40:45.212Z,16.00
2023-05-17T16:43:15.898Z,16.00
2023-05-17T16:45:44.849Z,15.90
2023-05-17T16:48:14.152Z,15.90
2023-05-17T16:50:42.239Z,16.00
2023-05-17T16:53:09.875Z,16.00
2023-05-17T16:55:37.488Z,15.90
2023-05-17T16:58:05.972Z,15.80
2023-05-17T17:00:34.128Z,15.70
2023-05-17T17:03:01.850Z,15.70
2023-05-17T17:05:29.481Z,15.70
2023-05-17T17:07:57.577Z,15.60
2023-05-17T17:10:25.154Z,15.60
2023-05-17T17:12:52.723Z,15.70
2023-05-17T17:15:20.668Z,15.60
2023-05-17T17:17:48.281Z,15.60
2023-05-17T17:20:15.914Z,15.70
2023-05-17T17:22:43.474Z,15.70
2023-05-17T17:25:11.301Z,15.70
2023-05-17T17:27:38.923Z,15.80
2023-05-17T17:30:07.595Z,15.70
2023-05-17T17:32:35.227Z,15.70
2023-05-17T17:35:03.207Z,15.60
2023-05-17T17:37:30.830Z,15.40
2023-05-17T17:39:58.458Z,15.40
2023-05-17T17:42:26.072Z,15.20
2023-05-17T17:44:54.636Z,15.10
2023-05-17T17:47:22.427Z,15.00
2023-05-17T17:49:50.306Z,14.90
2023-05-17T17:52:17.884Z,14.90
2023-05-17T17:54:46.212Z,14.90
2023-05-17T17:57:14.093Z,14.90
2023-05-17T17:59:41.624Z,14.80
2023-05-17T18:02:09.180Z,14.70
2023-05-17T18:04:36.834Z,14.60
2023-05-17T18:07:04.498Z,14.60
2023-05-17T18:09:32.121Z,14.50
2023-05-17T18:11:59.669Z,14.40
2023-05-17T18:14:27.200Z,14.30
2023-05-17T18:16:54.852Z,14.20
2023-05-17T18:19:22.575Z,14.10
2023-05-17T18:21:50.689Z,14.10
2023-05-17T18:24:18.367Z,14.00
2023-05-17T18:26:45.907Z,13.90
2023-05-17T18:29:13.469Z,13.90
2023-05-17T18:31:41.644Z,13.80
2023-05-17T18:34:09.324Z,13.60
2023-05-17T18:36:36.855Z,13.60
2023-05-17T18:39:05.583Z,13.50
2023-05-17T18:41:33.116Z,13.50
2023-05-17T18:44:02.697Z,13.40
2023-05-17T18:46:30.342Z,13.50
2023-05-17T18:48:58.112Z,13.50
2023-05-17T18:51:25.758Z,13.40
2023-05-17T18:53:53.714Z,13.40
2023-05-17T18:56:23.356Z,13.30
2023-05-17T18:58:52.891Z,13.30
2023-05-17T19:01:21.112Z,13.30
2023-05-17T19:03:51.392Z,13.20
2023-05-17T19:06:19.640Z,13.10
2023-05-17T19:08:49.546Z,13.10
2023-05-17T19:11:18.221Z,13.10
2023-05-17T19:13:45.921Z,13.00
2023-05-17T19:16:15.492Z,12.90
2023-05-17T19:18:43.247Z,12.90
2023-05-17T19:21:11.844Z,12.80
2023-05-17T19:23:39.479Z,12.70
2023-05-17T19:26:07.137Z,12.70
2023-05-17T19:28:35.798Z,12.60
2023-05-17T19:31:04.493Z,12.50
2023-05-17T19:33:33.924Z,12.50
2023-05-17T19:36:01.611Z,12.40
2023-05-17T19:38:29.295Z,12.30
2023-05-17T19:40:56.838Z,12.20
2023-05-17T19:43:25.248Z,12.10
2023-05-17T19:45:53.093Z,12.00
2023-05-17T19:48:20.760Z,12.00
2023-05-17T19:50:48.678Z,11.90
2023-05-17T19:53:16.210Z,11.90
2023-05-17T19:55:43.824Z,11.90
2023-05-17T19:58:11.503Z,11.90
2023-05-17T20:00:39.108Z,11.80
2023-05-17T20:03:06.785Z,11.80
2023-05-17T20:05:34.418Z,11.60
2023-05-17T20:08:06.475Z,11.60
2023-05-17T20:10:34.603Z,11.50
2023-05-17T20:13:02.375Z,11.50
2023-05-17T20:15:29.961Z,11.40
2023-05-17T20:17:58.213Z,11.40
2023-05-17T20:20:26.213Z,11.30
2023-05-17T20:22:53.758Z,11.20
2023-05-17T20:25:21.741Z,11.20
2023-05-17T20:27:49.315Z,11.10
2023-05-17T20:30:16.908Z,11.10
2023-05-17T20:32:44.524Z,11.00
2023-05-17T20:35:12.097Z,10.90
2023-05-17T20:37:39.679Z,10.90
2023-05-17T20:40:09.095Z,10.80
2023-05-17T20:42:37.618Z,10.80
2023-05-17T20:45:06.027Z,10.80
2023-05-17T20:47:33.729Z,10.70
2023-05-17T20:50:01.554Z,10.60
2023-05-17T20:52:38.975Z,10.50
2023-05-17T20:55:09.365Z,10.50
2023-05-17T20:57:37.028Z,10.40
2023-05-17T21:00:08.505Z,10.40
2023-05-17T21:02:40.637Z,10.30
2023-05-17T21:05:09.081Z,10.20
2023-05-17T21:07:39.908Z,10.20
2023-05-17T21:10:09.293Z,10.20
2023-05-17T21:12:36.808Z,10.10
2023-05-17T21:15:16.417Z,10.00
2023-05-17T21:17:52.480Z,9.90
2023-05-17T21:20:21.453Z,9.90
2023-05-17T21:22:50.590Z,9.90
2023-05-17T21:25:18.243Z,9.90
2023-05-17T21:27:45.987Z,9.90
2023-05-17T21:30:13.560Z,9.80
2023-05-17T21:32:41.576Z,9.70
2023-05-17T21:35:09.344Z,9.60
2023-05-17T21:37:39.871Z,9.60
2023-05-17T21:40:08.822Z,9.60
2023-05-17T21:42:36.434Z,9.60
2023-05-17T21:45:04.571Z,9.60
2023-05-17T21:47:32.400Z,9.60
2023-05-17T21:50:00.232Z,9.50
2023-05-17T21:52:27.858Z,9.50
2023-05-17T21:54:55.460Z,9.50
2023-05-17T21:57:23.110Z,9.40
2023-05-17T21:59:51.273Z,9.40
2023-05-17T22:02:19.108Z,9.40
2023-05-17T22:04:46.888Z,9.30
2023-05-17T22:07:14.452Z,9.30
2023-05-17T22:09:41.986Z,9.30
2023-05-17T22:12:12.093Z,9.30
2023-05-17T22:14:44.503Z,9.30
2023-05-17T22:17:12.170Z,9.30
2023-05-17T22:19:41.572Z,9.20
2023-05-17T22:22:09.325Z,9.20
2023-05-17T22:24:37.674Z,9.10
2023-05-17T22:27:05.644Z,9.00
2023-05-17T22:29:33.250Z,9.00
2023-05-17T22:32:00.897Z,8.90
2023-05-17T22:34:29.127Z,8.90
2023-05-17T22:36:57.243Z,8.90
2023-05-17T22:39:24.823Z,8.80
2023-05-17T22:41:52.596Z,8.80
2023-05-17T22:44:21.903Z,8.70
2023-05-17T22:46:49.841Z,8.70
2023-05-17T22:49:18.407Z,8.70
2023-05-17T22:51:46.751Z,8.70
2023-05-17T22:54:14.291Z,8.70
2023-05-17T22:56:41.877Z,8.60
2023-05-17T22:59:09.453Z,8.60
2023-05-17T23:01:37.091Z,8.60
2023-05-17T23:04:04.911Z,8.50
2023-05-17T23:06:34.031Z,8.50
2023-05-17T23:09:05.103Z,8.60
2023-05-17T23:11:34.769Z,8.60
2023-05-17T23:14:02.351Z,8.50
2023-05-17T23:16:29.911Z,8.50
2023-05-17T23:18:58.094Z,8.50
2023-05-17T23:21:25.709Z,8.50
2023-05-17T23:23:53.581Z,8.60
2023-05-17T23:26:22.045Z,8.50
2023-05-17T23:28:50.617Z,8.50
2023-05-17T23:31:18.179Z,8.50
2023-05-17T23:33:45.746Z,8.50
2023-05-17T23:36:13.311Z,8.40
2023-05-17T23:38:41.057Z,8.40
2023-05-17T23:41:11.512Z,8.30
2023-05-17T23:43:39.055Z,8.20
2023-05-17T23:46:06.804Z,8.20
2023-05-17T23:48:34.348Z,8.20
2023-05-17T23:51:01.945Z,8.20
2023-05-17T23:53:29.508Z,8.10
2023-05-17T23:55:57.034Z,8.10
2023-05-17T23:58:24.678Z,8.00
